sensor_id;sensor_type;location;lat;lon;timestamp;temperature;humidity
75155;HTU21D;63735;44.730;37.818;2023-09-12T00:02:08;17.69;57.02
75155;HTU21D;63735;44.730;37.818;2023-09-12T00:04:35;17.66;57.29
75155;HTU21D;63735;44.730;37.818;2023-09-12T00:07:01;17.61;57.58
75155;HTU21D;63735;44.730;37.818;2023-09-12T00:09:27;17.60;57.71
75155;HTU21D;63735;44.730;37.818;2023-09-12T00:11:53;17.56;57.76
75155;HTU21D;63735;44.730;37.818;2023-09-12T00:14:20;17.50;57.96
75155;HTU21D;63735;44.730;37.818;2023-09-12T00:16:46;17.45;58.03
75155;HTU21D;63735;44.730;37.818;2023-09-12T00:19:12;17.38;58.17
75155;HTU21D;63735;44.730;37.818;2023-09-12T00:21:38;17.31;58.31
75155;HTU21D;63735;44.730;37.818;2023-09-12T00:24:04;17.28;58.57
75155;HTU21D;63735;44.730;37.818;2023-09-12T00:26:31;17.25;58.92
75155;HTU21D;63735;44.730;37.818;2023-09-12T00:28:57;17.25;59.02
75155;HTU21D;63735;44.730;37.818;2023-09-12T00:31:22;17.25;58.94
75155;HTU21D;63735;44.730;37.818;2023-09-12T00:33:48;17.23;58.91
75155;HTU21D;63735;44.730;37.818;2023-09-12T00:36:14;17.21;58.88
75155;HTU21D;63735;44.730;37.818;2023-09-12T00:38:40;17.19;58.91
75155;HTU21D;63735;44.730;37.818;2023-09-12T00:41:06;17.16;59.00
75155;HTU21D;63735;44.730;37.818;2023-09-12T00:43:32;17.18;59.04
75155;HTU21D;63735;44.730;37.818;2023-09-12T00:45:58;17.18;59.38
75155;HTU21D;63735;44.730;37.818;2023-09-12T00:48:24;17.18;59.53
75155;HTU21D;63735;44.730;37.818;2023-09-12T00:50:51;17.19;59.62
75155;HTU21D;63735;44.730;37.818;2023-09-12T00:53:19;17.20;59.42
75155;HTU21D;63735;44.730;37.818;2023-09-12T00:55:50;17.21;59.25
75155;HTU21D;63735;44.730;37.818;2023-09-12T00:58:18;17.20;59.04
75155;HTU21D;63735;44.730;37.818;2023-09-12T01:00:44;17.24;58.83
75155;HTU21D;63735;44.730;37.818;2023-09-12T01:03:10;17.28;58.59
75155;HTU21D;63735;44.730;37.818;2023-09-12T01:05:37;17.32;58.32
75155;HTU21D;63735;44.730;37.818;2023-09-12T01:08:03;17.33;58.11
75155;HTU21D;63735;44.730;37.818;2023-09-12T01:10:29;17.34;57.95
75155;HTU21D;63735;44.730;37.818;2023-09-12T01:12:55;17.36;57.87
75155;HTU21D;63735;44.730;37.818;2023-09-12T01:15:21;17.37;57.91
75155;HTU21D;63735;44.730;37.818;2023-09-12T01:17:47;17.36;57.96
75155;HTU21D;63735;44.730;37.818;2023-09-12T01:20:22;17.32;58.24
75155;HTU21D;63735;44.730;37.818;2023-09-12T01:22:52;17.24;58.64
75155;HTU21D;63735;44.730;37.818;2023-09-12T01:28:09;17.15;59.04
75155;HTU21D;63735;44.730;37.818;2023-09-12T01:30:36;17.11;58.90
75155;HTU21D;63735;44.730;37.818;2023-09-12T01:33:04;17.07;59.40
75155;HTU21D;63735;44.730;37.818;2023-09-12T01:35:31;17.04;59.26
75155;HTU21D;63735;44.730;37.818;2023-09-12T01:37:57;17.01;59.22
75155;HTU21D;63735;44.730;37.818;2023-09-12T01:40:47;16.92;59.22
75155;HTU21D;63735;44.730;37.818;2023-09-12T01:43:21;16.85;59.28
75155;HTU21D;63735;44.730;37.818;2023-09-12T01:45:50;16.77;59.37
75155;HTU21D;63735;44.730;37.818;2023-09-12T01:48:24;16.66;59.54
75155;HTU21D;63735;44.730;37.818;2023-09-12T01:50:52;16.59;59.63
75155;HTU21D;63735;44.730;37.818;2023-09-12T01:53:19;16.54;59.79
75155;HTU21D;63735;44.730;37.818;2023-09-12T01:55:46;16.57;59.70
75155;HTU21D;63735;44.730;37.818;2023-09-12T01:58:12;16.59;59.61
75155;HTU21D;63735;44.730;37.818;2023-09-12T02:00:39;16.61;59.54
75155;HTU21D;63735;44.730;37.818;2023-09-12T02:03:06;16.63;59.51
75155;HTU21D;63735;44.730;37.818;2023-09-12T02:05:32;16.66;59.34
75155;HTU21D;63735;44.730;37.818;2023-09-12T02:07:58;16.67;59.14
75155;HTU21D;63735;44.730;37.818;2023-09-12T02:10:27;16.67;58.93
75155;HTU21D;63735;44.730;37.818;2023-09-12T02:12:53;16.67;58.80
75155;HTU21D;63735;44.730;37.818;2023-09-12T02:15:19;16.67;58.62
75155;HTU21D;63735;44.730;37.818;2023-09-12T02:17:45;16.70;58.49
75155;HTU21D;63735;44.730;37.818;2023-09-12T02:20:11;16.66;58.40
75155;HTU21D;63735;44.730;37.818;2023-09-12T02:22:37;16.60;58.40
75155;HTU21D;63735;44.730;37.818;2023-09-12T02:25:05;16.54;58.48
75155;HTU21D;63735;44.730;37.818;2023-09-12T02:27:31;16.50;58.47
75155;HTU21D;63735;44.730;37.818;2023-09-12T02:29:57;16.42;58.54
75155;HTU21D;63735;44.730;37.818;2023-09-12T02:32:23;16.43;58.56
75155;HTU21D;63735;44.730;37.818;2023-09-12T02:34:49;16.46;58.44
75155;HTU21D;63735;44.730;37.818;2023-09-12T02:37:15;16.45;58.37
75155;HTU21D;63735;44.730;37.818;2023-09-12T02:39:41;16.45;58.34
75155;HTU21D;63735;44.730;37.818;2023-09-12T02:42:07;16.35;58.37
75155;HTU21D;63735;44.730;37.818;2023-09-12T02:44:33;16.31;58.38
75155;HTU21D;63735;44.730;37.818;2023-09-12T02:46:59;16.31;58.35
75155;HTU21D;63735;44.730;37.818;2023-09-12T02:49:25;16.37;58.14
75155;HTU21D;63735;44.730;37.818;2023-09-12T02:51:51;16.48;57.95
75155;HTU21D;63735;44.730;37.818;2023-09-12T02:54:17;16.54;57.87
75155;HTU21D;63735;44.730;37.818;2023-09-12T02:56:43;16.58;57.80
75155;HTU21D;63735;44.730;37.818;2023-09-12T02:59:09;16.62;57.86
75155;HTU21D;63735;44.730;37.818;2023-09-12T03:01:35;16.63;57.87
75155;HTU21D;63735;44.730;37.818;2023-09-12T03:04:01;16.64;57.87
75155;HTU21D;63735;44.730;37.818;2023-09-12T03:06:28;16.62;57.89
75155;HTU21D;63735;44.730;37.818;2023-09-12T03:08:54;16.61;57.93
75155;HTU21D;63735;44.730;37.818;2023-09-12T03:11:20;16.60;57.95
75155;HTU21D;63735;44.730;37.818;2023-09-12T03:13:46;16.57;58.00
75155;HTU21D;63735;44.730;37.818;2023-09-12T03:16:13;16.58;57.96
75155;HTU21D;63735;44.730;37.818;2023-09-12T03:18:40;16.59;57.81
75155;HTU21D;63735;44.730;37.818;2023-09-12T03:21:06;16.56;57.70
75155;HTU21D;63735;44.730;37.818;2023-09-12T03:23:32;16.63;57.43
75155;HTU21D;63735;44.730;37.818;2023-09-12T03:26:05;16.71;57.06
75155;HTU21D;63735;44.730;37.818;2023-09-12T03:28:33;16.74;56.94
75155;HTU21D;63735;44.730;37.818;2023-09-12T03:31:11;16.73;56.91
75155;HTU21D;63735;44.730;37.818;2023-09-12T03:33:38;16.75;56.79
75155;HTU21D;63735;44.730;37.818;2023-09-12T03:36:08;16.75;56.81
75155;HTU21D;63735;44.730;37.818;2023-09-12T03:38:35;16.76;56.82
75155;HTU21D;63735;44.730;37.818;2023-09-12T03:41:01;16.77;56.82
75155;HTU21D;63735;44.730;37.818;2023-09-12T03:43:28;16.85;56.57
75155;HTU21D;63735;44.730;37.818;2023-09-12T03:45:55;16.91;56.32
75155;HTU21D;63735;44.730;37.818;2023-09-12T03:48:21;16.96;56.04
75155;HTU21D;63735;44.730;37.818;2023-09-12T03:50:47;17.05;55.78
75155;HTU21D;63735;44.730;37.818;2023-09-12T03:53:14;17.15;55.47
75155;HTU21D;63735;44.730;37.818;2023-09-12T03:55:40;17.21;55.28
75155;HTU21D;63735;44.730;37.818;2023-09-12T03:58:06;17.25;55.13
75155;HTU21D;63735;44.730;37.818;2023-09-12T04:00:33;17.28;54.99
75155;HTU21D;63735;44.730;37.818;2023-09-12T04:02:59;17.31;54.88
75155;HTU21D;63735;44.730;37.818;2023-09-12T04:05:26;17.30;54.98
75155;HTU21D;63735;44.730;37.818;2023-09-12T04:07:52;17.28;55.15
75155;HTU21D;63735;44.730;37.818;2023-09-12T04:10:20;17.48;54.89
75155;HTU21D;63735;44.730;37.818;2023-09-12T04:12:46;17.94;53.84
75155;HTU21D;63735;44.730;37.818;2023-09-12T04:15:12;18.55;52.58
75155;HTU21D;63735;44.730;37.818;2023-09-12T04:17:38;19.13;51.16
75155;HTU21D;63735;44.730;37.818;2023-09-12T04:20:05;18.98;51.23
75155;HTU21D;63735;44.730;37.818;2023-09-12T04:22:32;18.93;51.53
75155;HTU21D;63735;44.730;37.818;2023-09-12T04:24:58;19.08;51.49
75155;HTU21D;63735;44.730;37.818;2023-09-12T04:27:24;19.18;51.18
75155;HTU21D;63735;44.730;37.818;2023-09-12T04:29:50;19.00;51.62
75155;HTU21D;63735;44.730;37.818;2023-09-12T04:32:16;18.82;52.07
75155;HTU21D;63735;44.730;37.818;2023-09-12T04:34:49;18.67;52.48
75155;HTU21D;63735;44.730;37.818;2023-09-12T04:37:16;18.59;52.72
75155;HTU21D;63735;44.730;37.818;2023-09-12T04:39:41;18.55;52.91
75155;HTU21D;63735;44.730;37.818;2023-09-12T04:42:07;19.12;51.87
75155;HTU21D;63735;44.730;37.818;2023-09-12T04:44:38;20.14;49.43
75155;HTU21D;63735;44.730;37.818;2023-09-12T04:47:04;20.70;47.99
75155;HTU21D;63735;44.730;37.818;2023-09-12T04:49:31;20.66;48.26
75155;HTU21D;63735;44.730;37.818;2023-09-12T04:51:57;20.64;48.26
75155;HTU21D;63735;44.730;37.818;2023-09-12T04:54:23;20.66;48.24
75155;HTU21D;63735;44.730;37.818;2023-09-12T04:56:49;20.66;48.01
75155;HTU21D;63735;44.730;37.818;2023-09-12T04:59:15;20.68;48.10
75155;HTU21D;63735;44.730;37.818;2023-09-12T05:01:41;20.64;47.38
75155;HTU21D;63735;44.730;37.818;2023-09-12T05:04:07;20.65;47.30
75155;HTU21D;63735;44.730;37.818;2023-09-12T05:06:34;20.75;47.19
75155;HTU21D;63735;44.730;37.818;2023-09-12T05:08:59;21.03;46.93
75155;HTU21D;63735;44.730;37.818;2023-09-12T05:11:26;21.80;45.28
75155;HTU21D;63735;44.730;37.818;2023-09-12T05:13:52;22.65;43.59
75155;HTU21D;63735;44.730;37.818;2023-09-12T05:16:18;23.10;42.88
75155;HTU21D;63735;44.730;37.818;2023-09-12T05:18:44;23.30;42.18
75155;HTU21D;63735;44.730;37.818;2023-09-12T05:21:10;23.20;42.27
75155;HTU21D;63735;44.730;37.818;2023-09-12T05:23:36;23.68;41.42
75155;HTU21D;63735;44.730;37.818;2023-09-12T05:26:02;23.95;40.71
75155;HTU21D;63735;44.730;37.818;2023-09-12T05:28:28;24.13;40.02
75155;HTU21D;63735;44.730;37.818;2023-09-12T05:30:55;23.96;40.10
75155;HTU21D;63735;44.730;37.818;2023-09-12T05:33:21;24.24;39.14
75155;HTU21D;63735;44.730;37.818;2023-09-12T05:35:48;25.04;37.53
75155;HTU21D;63735;44.730;37.818;2023-09-12T05:38:14;25.76;35.98
75155;HTU21D;63735;44.730;37.818;2023-09-12T05:40:40;25.34;36.22
75155;HTU21D;63735;44.730;37.818;2023-09-12T05:43:06;25.00;37.15
75155;HTU21D;63735;44.730;37.818;2023-09-12T05:45:32;25.59;35.84
75155;HTU21D;63735;44.730;37.818;2023-09-12T05:47:59;26.05;35.02
75155;HTU21D;63735;44.730;37.818;2023-09-12T05:50:26;26.23;34.57
75155;HTU21D;63735;44.730;37.818;2023-09-12T05:52:53;25.79;35.07
75155;HTU21D;63735;44.730;37.818;2023-09-12T05:55:19;26.01;34.55
75155;HTU21D;63735;44.730;37.818;2023-09-12T05:57:45;25.92;34.57
75155;HTU21D;63735;44.730;37.818;2023-09-12T06:00:13;25.57;35.30
75155;HTU21D;63735;44.730;37.818;2023-09-12T06:02:42;25.66;34.90
75155;HTU21D;63735;44.730;37.818;2023-09-12T06:05:08;25.62;34.89
75155;HTU21D;63735;44.730;37.818;2023-09-12T06:07:34;25.52;34.88
75155;HTU21D;63735;44.730;37.818;2023-09-12T06:10:01;25.51;34.66
75155;HTU21D;63735;44.730;37.818;2023-09-12T06:12:27;25.82;34.07
75155;HTU21D;63735;44.730;37.818;2023-09-12T06:14:53;25.93;34.06
75155;HTU21D;63735;44.730;37.818;2023-09-12T06:17:21;25.97;34.12
75155;HTU21D;63735;44.730;37.818;2023-09-12T06:19:48;25.92;34.06
75155;HTU21D;63735;44.730;37.818;2023-09-12T06:22:17;25.87;34.02
75155;HTU21D;63735;44.730;37.818;2023-09-12T06:24:44;25.99;33.86
75155;HTU21D;63735;44.730;37.818;2023-09-12T06:27:10;26.11;33.57
75155;HTU21D;63735;44.730;37.818;2023-09-12T06:29:39;26.33;33.18
75155;HTU21D;63735;44.730;37.818;2023-09-12T06:32:05;26.17;33.09
75155;HTU21D;63735;44.730;37.818;2023-09-12T06:34:31;25.87;33.02
75155;HTU21D;63735;44.730;37.818;2023-09-12T06:36:57;25.93;33.44
75155;HTU21D;63735;44.730;37.818;2023-09-12T06:39:23;26.04;32.93
75155;HTU21D;63735;44.730;37.818;2023-09-12T06:41:50;26.09;32.34
75155;HTU21D;63735;44.730;37.818;2023-09-12T06:44:15;26.18;32.06
75155;HTU21D;63735;44.730;37.818;2023-09-12T06:46:41;26.12;31.83
75155;HTU21D;63735;44.730;37.818;2023-09-12T06:49:07;26.28;31.58
75155;HTU21D;63735;44.730;37.818;2023-09-12T06:51:33;26.43;31.24
75155;HTU21D;63735;44.730;37.818;2023-09-12T06:53:59;26.43;31.20
75155;HTU21D;63735;44.730;37.818;2023-09-12T06:56:25;26.66;30.86
75155;HTU21D;63735;44.730;37.818;2023-09-12T06:58:51;27.05;30.48
75155;HTU21D;63735;44.730;37.818;2023-09-12T07:01:18;27.55;29.71
75155;HTU21D;63735;44.730;37.818;2023-09-12T07:03:44;27.79;29.48
75155;HTU21D;63735;44.730;37.818;2023-09-12T07:06:10;28.01;29.07
75155;HTU21D;63735;44.730;37.818;2023-09-12T07:08:36;28.12;29.06
75155;HTU21D;63735;44.730;37.818;2023-09-12T07:11:04;28.29;28.76
75155;HTU21D;63735;44.730;37.818;2023-09-12T07:13:32;28.23;28.54
75155;HTU21D;63735;44.730;37.818;2023-09-12T07:15:58;27.78;29.29
75155;HTU21D;63735;44.730;37.818;2023-09-12T07:18:24;27.59;29.53
75155;HTU21D;63735;44.730;37.818;2023-09-12T07:21:00;27.80;29.44
75155;HTU21D;63735;44.730;37.818;2023-09-12T07:23:27;28.06;28.89
75155;HTU21D;63735;44.730;37.818;2023-09-12T07:25:54;28.29;28.64
75155;HTU21D;63735;44.730;37.818;2023-09-12T07:28:21;28.52;28.48
75155;HTU21D;63735;44.730;37.818;2023-09-12T07:30:47;28.72;28.17
75155;HTU21D;63735;44.730;37.818;2023-09-12T07:33:13;28.75;28.04
75155;HTU21D;63735;44.730;37.818;2023-09-12T07:35:39;28.49;28.36
75155;HTU21D;63735;44.730;37.818;2023-09-12T07:38:05;28.38;28.52
75155;HTU21D;63735;44.730;37.818;2023-09-12T07:40:31;28.29;28.39
75155;HTU21D;63735;44.730;37.818;2023-09-12T07:42:57;28.19;28.52
75155;HTU21D;63735;44.730;37.818;2023-09-12T07:45:23;27.84;29.06
75155;HTU21D;63735;44.730;37.818;2023-09-12T07:47:49;28.03;28.80
75155;HTU21D;63735;44.730;37.818;2023-09-12T07:50:15;28.23;28.72
75155;HTU21D;63735;44.730;37.818;2023-09-12T07:52:41;28.44;28.43
75155;HTU21D;63735;44.730;37.818;2023-09-12T07:55:08;28.57;28.27
75155;HTU21D;63735;44.730;37.818;2023-09-12T07:57:34;28.85;28.45
75155;HTU21D;63735;44.730;37.818;2023-09-12T08:00:01;29.00;27.91
75155;HTU21D;63735;44.730;37.818;2023-09-12T08:02:37;29.05;27.87
75155;HTU21D;63735;44.730;37.818;2023-09-12T08:05:04;28.92;27.52
75155;HTU21D;63735;44.730;37.818;2023-09-12T08:07:30;28.73;27.88
75155;HTU21D;63735;44.730;37.818;2023-09-12T08:09:57;28.88;27.57
75155;HTU21D;63735;44.730;37.818;2023-09-12T08:12:24;28.95;27.40
75155;HTU21D;63735;44.730;37.818;2023-09-12T08:14:52;28.94;27.39
75155;HTU21D;63735;44.730;37.818;2023-09-12T08:17:17;29.08;27.58
75155;HTU21D;63735;44.730;37.818;2023-09-12T08:19:44;29.27;27.23
75155;HTU21D;63735;44.730;37.818;2023-09-12T08:22:10;29.31;27.02
75155;HTU21D;63735;44.730;37.818;2023-09-12T08:24:37;29.42;26.71
75155;HTU21D;63735;44.730;37.818;2023-09-12T08:27:03;29.07;26.72
75155;HTU21D;63735;44.730;37.818;2023-09-12T08:29:29;28.74;27.51
75155;HTU21D;63735;44.730;37.818;2023-09-12T08:31:55;28.97;27.31
75155;HTU21D;63735;44.730;37.818;2023-09-12T08:34:21;29.30;26.70
75155;HTU21D;63735;44.730;37.818;2023-09-12T08:36:47;29.39;26.46
75155;HTU21D;63735;44.730;37.818;2023-09-12T08:39:15;29.16;26.49
75155;HTU21D;63735;44.730;37.818;2023-09-12T08:41:42;29.04;26.58
75155;HTU21D;63735;44.730;37.818;2023-09-12T08:44:09;29.13;26.69
75155;HTU21D;63735;44.730;37.818;2023-09-12T08:46:35;29.36;26.73
75155;HTU21D;63735;44.730;37.818;2023-09-12T08:49:04;29.44;26.55
75155;HTU21D;63735;44.730;37.818;2023-09-12T08:51:30;29.52;26.31
75155;HTU21D;63735;44.730;37.818;2023-09-12T08:53:57;29.33;26.15
75155;HTU21D;63735;44.730;37.818;2023-09-12T08:56:23;28.61;26.98
75155;HTU21D;63735;44.730;37.818;2023-09-12T08:58:51;28.73;27.20
75155;HTU21D;63735;44.730;37.818;2023-09-12T09:01:17;29.15;26.91
75155;HTU21D;63735;44.730;37.818;2023-09-12T09:03:44;29.23;26.81
75155;HTU21D;63735;44.730;37.818;2023-09-12T09:06:10;29.38;26.61
75155;HTU21D;63735;44.730;37.818;2023-09-12T09:08:38;29.33;26.51
75155;HTU21D;63735;44.730;37.818;2023-09-12T09:11:05;29.50;26.26
75155;HTU21D;63735;44.730;37.818;2023-09-12T09:13:34;29.77;25.91
75155;HTU21D;63735;44.730;37.818;2023-09-12T09:16:09;30.06;25.53
75155;HTU21D;63735;44.730;37.818;2023-09-12T09:18:58;30.21;25.36
75155;HTU21D;63735;44.730;37.818;2023-09-12T09:21:28;30.34;25.35
75155;HTU21D;63735;44.730;37.818;2023-09-12T09:23:57;30.71;25.05
75155;HTU21D;63735;44.730;37.818;2023-09-12T09:26:23;31.13;24.49
75155;HTU21D;63735;44.730;37.818;2023-09-12T09:29:06;31.28;24.01
75155;HTU21D;63735;44.730;37.818;2023-09-12T09:31:32;30.81;24.26
75155;HTU21D;63735;44.730;37.818;2023-09-12T09:33:59;30.38;24.90
75155;HTU21D;63735;44.730;37.818;2023-09-12T09:36:27;30.46;24.82
75155;HTU21D;63735;44.730;37.818;2023-09-12T09:38:55;30.66;24.64
75155;HTU21D;63735;44.730;37.818;2023-09-12T09:41:22;30.81;24.33
75155;HTU21D;63735;44.730;37.818;2023-09-12T09:43:50;30.93;24.17
75155;HTU21D;63735;44.730;37.818;2023-09-12T09:46:17;30.81;24.36
75155;HTU21D;63735;44.730;37.818;2023-09-12T09:48:51;30.81;24.42
75155;HTU21D;63735;44.730;37.818;2023-09-12T09:51:17;30.80;23.97
75155;HTU21D;63735;44.730;37.818;2023-09-12T09:53:43;30.70;23.66
75155;HTU21D;63735;44.730;37.818;2023-09-12T09:56:10;30.18;24.46
75155;HTU21D;63735;44.730;37.818;2023-09-12T10:01:33;30.50;24.40
75155;HTU21D;63735;44.730;37.818;2023-09-12T10:04:01;30.79;23.97
75155;HTU21D;63735;44.730;37.818;2023-09-12T10:06:28;30.99;23.70
75155;HTU21D;63735;44.730;37.818;2023-09-12T10:08:56;31.15;23.35
75155;HTU21D;63735;44.730;37.818;2023-09-12T10:11:27;31.05;23.44
75155;HTU21D;63735;44.730;37.818;2023-09-12T10:13:57;31.05;23.46
75155;HTU21D;63735;44.730;37.818;2023-09-12T10:16:30;31.08;23.52
75155;HTU21D;63735;44.730;37.818;2023-09-12T10:19:04;30.50;23.75
75155;HTU21D;63735;44.730;37.818;2023-09-12T10:21:35;30.32;24.40
75155;HTU21D;63735;44.730;37.818;2023-09-12T10:24:03;30.62;24.14
75155;HTU21D;63735;44.730;37.818;2023-09-12T10:26:31;31.10;23.65
75155;HTU21D;63735;44.730;37.818;2023-09-12T10:28:57;31.37;23.17
75155;HTU21D;63735;44.730;37.818;2023-09-12T10:31:25;31.39;22.66
75155;HTU21D;63735;44.730;37.818;2023-09-12T10:33:52;31.29;22.91
75155;HTU21D;63735;44.730;37.818;2023-09-12T10:36:20;31.34;22.49
75155;HTU21D;63735;44.730;37.818;2023-09-12T10:38:48;31.39;22.26
75155;HTU21D;63735;44.730;37.818;2023-09-12T10:41:15;31.52;21.88
75155;HTU21D;63735;44.730;37.818;2023-09-12T10:43:44;31.49;21.80
75155;HTU21D;63735;44.730;37.818;2023-09-12T10:46:13;31.59;21.75
75155;HTU21D;63735;44.730;37.818;2023-09-12T10:48:39;31.38;21.76
75155;HTU21D;63735;44.730;37.818;2023-09-12T10:51:09;30.90;22.50
75155;HTU21D;63735;44.730;37.818;2023-09-12T10:53:35;30.92;22.81
75155;HTU21D;63735;44.730;37.818;2023-09-12T11:01:40;30.95;22.87
75155;HTU21D;63735;44.730;37.818;2023-09-12T11:06:50;31.52;22.53
75155;HTU21D;63735;44.730;37.818;2023-09-12T11:09:17;31.79;22.31
75155;HTU21D;63735;44.730;37.818;2023-09-12T11:11:49;31.92;22.16
75155;HTU21D;63735;44.730;37.818;2023-09-12T11:14:15;31.95;22.09
75155;HTU21D;63735;44.730;37.818;2023-09-12T11:16:42;31.99;22.03
75155;HTU21D;63735;44.730;37.818;2023-09-12T11:21:52;32.33;22.03
75155;HTU21D;63735;44.730;37.818;2023-09-12T11:24:19;32.57;21.79
75155;HTU21D;63735;44.730;37.818;2023-09-12T11:27:02;32.83;21.45
75155;HTU21D;63735;44.730;37.818;2023-09-12T11:29:38;33.08;21.19
75155;HTU21D;63735;44.730;37.818;2023-09-12T11:32:06;33.26;20.93
75155;HTU21D;63735;44.730;37.818;2023-09-12T11:34:40;32.69;21.17
75155;HTU21D;63735;44.730;37.818;2023-09-12T11:37:06;31.70;22.37
75155;HTU21D;63735;44.730;37.818;2023-09-12T11:39:34;31.68;22.44
75155;HTU21D;63735;44.730;37.818;2023-09-12T11:42:02;31.63;22.18
75155;HTU21D;63735;44.730;37.818;2023-09-12T11:44:30;31.30;22.43
75155;HTU21D;63735;44.730;37.818;2023-09-12T11:47:02;31.44;22.39
75155;HTU21D;63735;44.730;37.818;2023-09-12T11:49:38;31.48;22.16
75155;HTU21D;63735;44.730;37.818;2023-09-12T11:52:17;30.82;22.68
75155;HTU21D;63735;44.730;37.818;2023-09-12T11:54:43;30.02;23.28
75155;HTU21D;63735;44.730;37.818;2023-09-12T11:57:12;29.34;23.86
75155;HTU21D;63735;44.730;37.818;2023-09-12T11:59:40;28.86;24.59
75155;HTU21D;63735;44.730;37.818;2023-09-12T12:02:07;29.17;24.73
75155;HTU21D;63735;44.730;37.818;2023-09-12T12:04:34;29.83;24.23
75155;HTU21D;63735;44.730;37.818;2023-09-12T12:07:02;30.40;23.70
75155;HTU21D;63735;44.730;37.818;2023-09-12T12:09:30;30.96;23.32
75155;HTU21D;63735;44.730;37.818;2023-09-12T12:11:56;31.41;22.87
75155;HTU21D;63735;44.730;37.818;2023-09-12T12:14:26;31.54;22.60
75155;HTU21D;63735;44.730;37.818;2023-09-12T12:16:52;30.84;23.02
75155;HTU21D;63735;44.730;37.818;2023-09-12T12:19:18;30.02;24.08
75155;HTU21D;63735;44.730;37.818;2023-09-12T12:21:45;29.23;25.76
75155;HTU21D;63735;44.730;37.818;2023-09-12T12:24:13;28.55;27.34
75155;HTU21D;63735;44.730;37.818;2023-09-12T12:26:45;27.85;28.85
75155;HTU21D;63735;44.730;37.818;2023-09-12T12:29:11;27.35;29.94
75155;HTU21D;63735;44.730;37.818;2023-09-12T12:31:39;26.94;30.86
75155;HTU21D;63735;44.730;37.818;2023-09-12T12:34:05;26.60;31.70
75155;HTU21D;63735;44.730;37.818;2023-09-12T12:36:32;26.28;32.53
75155;HTU21D;63735;44.730;37.818;2023-09-12T12:38:58;26.08;32.96
75155;HTU21D;63735;44.730;37.818;2023-09-12T12:41:27;25.92;33.31
75155;HTU21D;63735;44.730;37.818;2023-09-12T12:43:56;25.78;33.70
75155;HTU21D;63735;44.730;37.818;2023-09-12T12:46:26;25.63;34.18
75155;HTU21D;63735;44.730;37.818;2023-09-12T12:48:53;25.50;34.43
75155;HTU21D;63735;44.730;37.818;2023-09-12T12:51:21;25.34;34.81
75155;HTU21D;63735;44.730;37.818;2023-09-12T12:53:55;25.20;35.08
75155;HTU21D;63735;44.730;37.818;2023-09-12T12:56:28;25.12;35.29
75155;HTU21D;63735;44.730;37.818;2023-09-12T12:58:55;25.06;35.45
75155;HTU21D;63735;44.730;37.818;2023-09-12T13:01:22;24.99;35.66
75155;HTU21D;63735;44.730;37.818;2023-09-12T13:03:49;24.90;35.85
75155;HTU21D;63735;44.730;37.818;2023-09-12T13:06:18;24.79;35.97
75155;HTU21D;63735;44.730;37.818;2023-09-12T13:08:45;24.71;36.11
75155;HTU21D;63735;44.730;37.818;2023-09-12T13:11:13;24.65;36.21
75155;HTU21D;63735;44.730;37.818;2023-09-12T13:13:40;24.60;36.22
75155;HTU21D;63735;44.730;37.818;2023-09-12T13:16:07;24.61;35.99
75155;HTU21D;63735;44.730;37.818;2023-09-12T13:18:39;24.56;36.11
75155;HTU21D;63735;44.730;37.818;2023-09-12T13:21:05;24.57;36.14
75155;HTU21D;63735;44.730;37.818;2023-09-12T13:23:34;24.58;36.08
75155;HTU21D;63735;44.730;37.818;2023-09-12T13:26:01;24.60;36.08
75155;HTU21D;63735;44.730;37.818;2023-09-12T13:28:28;24.59;35.93
75155;HTU21D;63735;44.730;37.818;2023-09-12T13:30:55;24.60;35.79
75155;HTU21D;63735;44.730;37.818;2023-09-12T13:33:21;24.61;35.65
75155;HTU21D;63735;44.730;37.818;2023-09-12T13:35:50;24.66;35.57
75155;HTU21D;63735;44.730;37.818;2023-09-12T13:38:17;24.70;35.40
75155;HTU21D;63735;44.730;37.818;2023-09-12T13:40:45;24.74;35.24
75155;HTU21D;63735;44.730;37.818;2023-09-12T13:43:12;24.79;35.29
75155;HTU21D;63735;44.730;37.818;2023-09-12T13:45:38;24.82;35.34
75155;HTU21D;63735;44.730;37.818;2023-09-12T13:48:05;24.87;35.40
75155;HTU21D;63735;44.730;37.818;2023-09-12T13:50:32;24.89;35.45
75155;HTU21D;63735;44.730;37.818;2023-09-12T13:53:02;24.87;35.51
75155;HTU21D;63735;44.730;37.818;2023-09-12T13:55:35;24.83;35.38
75155;HTU21D;63735;44.730;37.818;2023-09-12T13:58:05;24.76;35.24
75155;HTU21D;63735;44.730;37.818;2023-09-12T14:00:32;24.72;35.27
75155;HTU21D;63735;44.730;37.818;2023-09-12T14:02:59;24.73;35.14
75155;HTU21D;63735;44.730;37.818;2023-09-12T14:05:25;24.71;34.97
75155;HTU21D;63735;44.730;37.818;2023-09-12T14:07:51;24.62;35.02
75155;HTU21D;63735;44.730;37.818;2023-09-12T14:10:17;24.64;35.06
75155;HTU21D;63735;44.730;37.818;2023-09-12T14:12:43;24.60;35.19
75155;HTU21D;63735;44.730;37.818;2023-09-12T14:15:12;24.56;35.37
75155;HTU21D;63735;44.730;37.818;2023-09-12T14:17:40;24.47;35.63
75155;HTU21D;63735;44.730;37.818;2023-09-12T14:20:07;24.41;35.82
75155;HTU21D;63735;44.730;37.818;2023-09-12T14:22:34;24.38;35.95
75155;HTU21D;63735;44.730;37.818;2023-09-12T14:25:00;24.31;36.18
75155;HTU21D;63735;44.730;37.818;2023-09-12T14:27:26;24.29;36.38
75155;HTU21D;63735;44.730;37.818;2023-09-12T14:29:51;24.38;36.39
75155;HTU21D;63735;44.730;37.818;2023-09-12T14:32:17;24.40;36.40
75155;HTU21D;63735;44.730;37.818;2023-09-12T14:34:43;24.46;36.30
75155;HTU21D;63735;44.730;37.818;2023-09-12T14:37:11;24.53;36.17
75155;HTU21D;63735;44.730;37.818;2023-09-12T14:39:37;24.55;36.26
75155;HTU21D;63735;44.730;37.818;2023-09-12T14:42:03;24.56;36.30
75155;HTU21D;63735;44.730;37.818;2023-09-12T14:44:37;24.54;36.56
75155;HTU21D;63735;44.730;37.818;2023-09-12T14:47:03;24.50;36.56
75155;HTU21D;63735;44.730;37.818;2023-09-12T14:49:29;24.46;36.54
75155;HTU21D;63735;44.730;37.818;2023-09-12T14:51:55;24.43;36.56
75155;HTU21D;63735;44.730;37.818;2023-09-12T14:54:21;24.40;36.56
75155;HTU21D;63735;44.730;37.818;2023-09-12T14:56:48;24.34;36.50
75155;HTU21D;63735;44.730;37.818;2023-09-12T14:59:14;24.25;36.76
75155;HTU21D;63735;44.730;37.818;2023-09-12T15:01:42;24.15;36.94
75155;HTU21D;63735;44.730;37.818;2023-09-12T15:04:09;24.11;37.14
75155;HTU21D;63735;44.730;37.818;2023-09-12T15:06:36;24.03;37.30
75155;HTU21D;63735;44.730;37.818;2023-09-12T15:09:02;23.97;37.42
75155;HTU21D;63735;44.730;37.818;2023-09-12T15:11:27;23.91;37.53
75155;HTU21D;63735;44.730;37.818;2023-09-12T15:13:53;23.86;37.66
75155;HTU21D;63735;44.730;37.818;2023-09-12T15:16:19;23.79;37.77
75155;HTU21D;63735;44.730;37.818;2023-09-12T15:18:45;23.75;37.86
75155;HTU21D;63735;44.730;37.818;2023-09-12T15:21:11;23.70;37.97